Flight Track Log - Related Links

Times and Time Zones

All times are in EDT time to prevent confusion due to time zone crossing. See the ASH3770 flight status page for this flight to view local times or setup timezone preferences in your user account.


Time Position Orientation Groundspeed Altitude Reporting Facility
EDT Latitude Longitude Course Direction KTS MPH feet Rate Location/Type
Wed 06:37:57 PM 40.5025 -80.3347 282° West 156 180 3,800  Level Cleveland Center
Wed 06:38:57 PM 40.5111 -80.4083 279° West 185 213 5,900 2,450 Climbing Cleveland Center
Wed 06:39:57 PM 40.5319 -80.4956 287° West 222 255 8,700 2,550 Climbing Cleveland Center
Wed 06:40:57 PM 40.5508 -80.5858 285° West 244 281 11,000 2,050 Climbing Cleveland Center
Wed 06:41:57 PM 40.5736 -80.6814 287° West 264 304 12,800 1,850 Climbing Cleveland Center
Wed 06:42:00 PM 40.6397 -80.9588 288° West  Level FlightAware Approximate
Wed 06:42:57 PM 40.5986 -80.7908 287° West 293 337 14,700  Level Cleveland Center
Wed 06:43:00 PM 40.6639 -81.0834 282° West  Level FlightAware Approximate
Wed 06:43:57 PM 40.6253 -80.9058 287° West 311 358 16,900  Level Cleveland Center
Wed 06:44:57 PM 40.6522 -81.0208 287° West 323 372 18,700 1,800 Climbing Cleveland Center
Wed 06:45:57 PM 40.6786 -81.1417 286° West 334 384 20,500 1,700 Climbing Cleveland Center
Wed 06:46:57 PM 40.7072 -81.2650 287° West 341 392 22,100 1,500 Climbing Cleveland Center
Wed 06:47:57 PM 40.7333 -81.3914 285° West 351 404 23,500 1,300 Climbing Cleveland Center
Wed 06:48:57 PM 40.7594 -81.5261 284° West 363 418 24,700 1,250 Climbing Cleveland Center
Wed 06:49:57 PM 40.7833 -81.6608 283° West 375 432 26,000 1,250 Climbing Cleveland Center
Wed 06:50:57 PM 40.8092 -81.7956 284° West 380 437 27,200 1,000 Climbing Cleveland Center
Wed 06:51:57 PM 40.8347 -81.9333 284° West 380 437 28,000 850 Climbing Cleveland Center
Wed 06:52:57 PM 40.8600 -82.0767 283° West 385 443 28,900 900 Climbing Cleveland Center
Wed 06:53:57 PM 40.8850 -82.2200 283° West 397 457 29,800 900 Climbing Cleveland Center
Wed 06:54:57 PM 40.9100 -82.3636 283° West 402 463 30,700 1,250 Climbing Cleveland Center
Wed 06:55:57 PM 40.9369 -82.5072 284° West 402 463 32,300 1,250 Climbing Cleveland Center
Wed 06:56:57 PM 40.9636 -82.6481 284° West 395 455 33,200 1,000 Climbing Cleveland Center
Wed 06:57:57 PM 40.9881 -82.7892 283° West 395 455 34,300 1,050 Climbing Cleveland Center
Wed 06:58:57 PM 41.0122 -82.9303 283° West 395 455 35,300 850 Climbing Cleveland Center
Wed 06:59:57 PM 41.0383 -83.0828 283° West 390 449 36,000 350 Climbing Cleveland Center
Wed 07:00:57 PM 41.0622 -83.2269 282° West 396 456 36,000  Level Cleveland Center
Wed 07:01:57 PM 41.0858 -83.3683 283° West 396 456 36,000  Level Cleveland Center
Wed 07:02:57 PM 41.1050 -83.5208 280° West 413 475 36,000  Level Cleveland Center
Wed 07:03:57 PM 41.1322 -83.6708 284° West 418 481 36,000  Level Cleveland Center
Wed 07:04:57 PM 41.1572 -83.8239 282° West 418 481 36,000 -150 Level Cleveland Center
Wed 07:05:57 PM 41.1842 -83.9742 283° West 418 481 35,700 -731 Descending Cleveland Center
Wed 07:07:33 PM 41.2233 -84.2144 282° West 430 495 34,100 -646 Descending Chicago Center
Wed 07:08:35 PM 41.2275 -84.3725 272° West 428 493 34,000 -48 Descending Chicago Center
Wed 07:09:37 PM 41.2306 -84.5206 272° West 409 471 34,000  Level Chicago Center
Wed 07:10:39 PM 41.2350 -84.6589 272° West 385 443 34,000  Level Chicago Center
Wed 07:11:41 PM 41.2392 -84.7972 272° West 377 434 34,000 -387 Level Chicago Center
Wed 07:12:43 PM 41.2447 -84.9683 273° West 381 438 33,200 -968 Descending Chicago Center
Wed 07:13:45 PM 41.2483 -85.1208 272° West 402 463 32,000 -1,161 Descending Chicago Center
Wed 07:14:47 PM 41.2244 -85.2692 258° West 422 486 30,800 -968 Descending Chicago Center
Wed 07:15:49 PM 41.1461 -85.3847 228° Southwest 421 484 30,000 -532 Descending Chicago Center
Wed 07:16:51 PM 41.1525 -85.5217 274° West 389 448 29,700 -823 Descending Chicago Center
Wed 07:17:53 PM 41.1861 -85.6611 288° West 392 451 28,300 -1,452 Descending Chicago Center
Wed 07:18:55 PM 41.2236 -85.8056 289° West 406 467 26,700 -1,597 Descending Chicago Center
Wed 07:19:57 PM 41.2614 -85.9542 289° West 419 482 25,000 -823 Descending Chicago Center
Wed 07:20:59 PM 41.3047 -86.1214 289° West 399 459 25,000 -290 Level Chicago Center
Wed 07:22:01 PM 41.3394 -86.2592 289° West 393 452 24,400 -1,161 Descending Chicago Center
Wed 07:23:03 PM 41.3736 -86.3972 288° West 393 452 22,600 -1,694 Descending Chicago Center
Wed 07:24:05 PM 41.4069 -86.5267 289° West 373 429 20,900 -1,645 Descending Chicago Center
Wed 07:25:07 PM 41.4364 -86.6500 288° West 356 410 19,200 -1,694 Descending Chicago Center
Wed 07:26:09 PM 41.4683 -86.7778 288° West 344 396 17,400 -1,742 Descending Chicago Center
Wed 07:27:11 PM 41.4969 -86.8961 288° West 339 390 15,600 -1,839 Descending Chicago Center
Wed 07:28:13 PM 41.5325 -87.0364 289° West 337 388 13,600 -1,694 Descending Chicago Center
Wed 07:29:15 PM 41.5594 -87.1503 288° West 327 376 12,100 -1,143 Descending Chicago Center
Wed 07:29:37 PM 41.5667 -87.2000 281° West 334 384 12,000 -220 Descending Chicago TRACON
Wed 07:30:37 PM 41.6167 -87.3000 304° West 334 384 11,800 -529 Descending Chicago TRACON
Wed 07:31:19 PM 41.6508 -87.3636 306° West 341 392 11,100 -1,038 Descending Chicago Center
Wed 07:32:21 PM 41.7047 -87.4639 306° West 338 389 10,000 -532 Descending Chicago Center
Wed 07:33:23 PM 41.7686 -87.5839 306° West 335 386 10,000  Level Chicago Center
Wed 07:34:25 PM 41.8233 -87.6861 306° West 339 390 10,000 -422 Level Chicago Center
Wed 07:35:31 PM 41.8833 -87.7833 310° West 273 314 9,100 -952 Descending Chicago TRACON
Wed 07:36:31 PM 41.8833 -87.8833 270° West 265 305 8,000 -750 Descending Chicago TRACON
Wed 07:37:31 PM 41.8833 -87.9833 270° West 236 272 7,600 -744 Descending Chicago TRACON
Wed 07:38:32 PM 41.8833 -88.0500 270° West 194 223 6,500 -1,190 Descending Chicago TRACON
Wed 07:39:32 PM 41.8833 -88.1167 270° West 186 214 5,200 -1,524 Descending Chicago TRACON
Wed 07:40:38 PM 41.9500 -88.1167 360° North 205 236 3,300 -1,727 Descending Chicago TRACON

Login

Don't have an account? Register now (free) for customized features, flight alerts, and more!